Market Report

or Create your own market report

Harbour Town Home Sales Market Report

Past year activity for home sales in Harbour Town, Sea Pines, Hilton Head Island, SC


Active Properties
Address Beds Baths Living ft2 List Price Dom
21 Spartina Crescent 3 3 2,552 $885,000 N/A
67 Baynard Park Road 4 5 4,910 $4,500,000 N/A
65 Baynard Park Road 4 4 3,328 $2,475,000 N/A
61 Baynard Park Road 5 7 6,638 $3,950,000 N/A
36 Wisteria Lane 3 4 2,646 $669,900 N/A
9 N Calibogue Cay Road 4 5 4,679 $3,950,000 N/A
8 Windjammer Court 4 4 3,471 $929,000 N/A
23 Baynard Park Road 8 11 7,064 $6,495,000 N/A
52 N Calibogue Cay Road 4 5 4,296 $1,895,000 N/A
35 Red Oak Road 5 7 4,913 $1,740,000 N/A
Average: 4.4 5.5 4,449 $2,748,890
Viewing 1 - 10 of 10
Viewing 1 - 10 of 10
Properties Under Contract
Address Beds Baths Living ft2 List Price Dom
13 Fern Court 3 3 2,293 $929,000 N/A
42 Planters Wood Drive 3 4 2,500 $949,500 N/A
15 Fern Court 3 2 1,437 $719,000 N/A
4 Twin Pines Road 5 6 4,475 $1,389,000 N/A
108 Baynard Cove Road 3 4 3,453 $1,029,000 N/A
93 Plantation Drive 5 5 3,506 $1,299,000 N/A
53 N Calibogue Cay Road 4 5 3,689 $3,725,000 N/A
28 Plantation Drive 6 5 3,675 $925,000 N/A
58 Stoney Creek Road 3 3 2,502 $775,000 N/A
26 Red Oak Road 5 5 4,190 $1,650,000 N/A
26 Ridgewood Lane 3 5 3,781 $799,000 N/A
30 Harleston Green 5 6 4,725 $1,850,000 N/A
Average: 4.0 4.4 3,352 $1,336,541
Viewing 1 - 12 of 12
Viewing 1 - 12 of 12
Sold Properties
Address Beds Baths Living ft2 List Price Sold Price Sold Date
2 Muirfield Road 3 4 1,759 $689,000 $689,000 10/20/20
36 Baynard Park Road 4 6 5,223 $1,590,000 $1,525,000 10/20/20
3 Muirfield Road 3 3 1,743 $640,000 $640,000 10/15/20
4 Pine Court 3 2 1,710 $560,000 $547,500 10/13/20
8 Marsh Drive 5 5 4,074 $1,299,000 $1,225,000 10/6/20
100 Baynard Cove Road 4 6 4,609 $1,375,000 $1,350,000 10/5/20
5 Fern Court 3 3 2,048 $700,000 $705,000 9/30/20
21 Heritage Road 4 5 3,010 $1,333,000 $1,355,000 9/29/20
8 N Calibogue Cay Road 4 4 3,718 $2,100,000 $1,950,000 9/29/20
74 Plantation Drive 3 2 2,585 $879,000 $883,500 9/25/20
33 Saint Andrews Place 3 4 2,425 $1,050,000 $1,050,000 9/22/20
12 Genoa Ct 4 4 3,391 $1,200,000 $1,150,000 9/18/20
77 Baynard Cove Road 6 7 4,912 $1,695,000 $1,526,750 9/18/20
17 Baynard Cove Road 4 4 2,342 $1,295,000 $1,275,000 9/8/20
1 Mizzenmast Lane 4 4 3,119 $875,000 $750,000 9/4/20
61 Heritage Road 6 8 6,978 $2,300,000 $2,050,000 9/3/20
23 Wildwood Road 5 3 2,858 $649,000 $585,000 8/28/20
31 Baynard Park Road 5 7 7,969 $4,300,000 $4,000,000 8/24/20
43 Stoney Creek Road 3 2 1,809 $819,000 $819,000 8/21/20
10 Twin Pines Road 5 6 6,065 $1,688,000 $1,650,000 8/13/20
1 Sweet Gum Court 4 4 2,563 $650,000 $620,000 7/31/20
2060 Deer Island Road 2 2 816 $359,000 $355,000 7/31/20
79 Plantation Drive 6 5 4,385 $1,245,000 $1,225,000 7/23/20
52 Baynard Cove Road 5 5 3,612 $1,275,000 $1,226,000 7/15/20
2003 Deer Island Road 2 2 816 $419,000 $410,000 6/30/20
14 Baynard Park Road 4 5 3,293 $895,000 $890,000 6/24/20
38 Windjammer Court 5 6 4,152 $1,695,000 $1,450,000 6/2/20
38 Hearthwood Drive 4 4 3,127 $835,000 $800,000 5/11/20
39 N Calibogue Cay Road 5 8 7,452 $4,995,000 $4,495,000 4/3/20
26 Spartina Crescent 3 4 3,354 $799,999 $785,000 3/31/20
40 Harleston Green 4 4 2,652 $645,000 $600,000 3/31/20
8 Muirfield Road 3 3 1,816 $675,000 $640,000 3/16/20
7 Fern Court 3 3 2,395 $624,000 $612,000 1/20/20
11 Red Oak Road 3 3 2,779 $710,000 $675,000 12/26/19
72 N Calibogue Cay Road 4 5 4,284 $1,895,000 $1,836,000 12/9/19
8 Wildwood Court 4 3 2,162 $695,000 $685,000 12/6/19
11 Fern Court 4 5 4,100 $999,500 $950,000 12/5/19
3 Fern Court 2 3 2,465 $495,000 $495,000 11/25/19
102 Baynard Cove Road 6 7 5,917 $1,649,000 $1,600,000 11/15/19
71 N Calibogue Cay Road 5 7 6,531 $5,995,000 $5,575,000 11/14/19
34 Hearthwood Drive 4 5 3,119 $1,015,000 $970,000 11/13/19
8 Dewberry Ln 3 2 1,732 $499,000 $480,000 10/31/19
33 Spartina Court 3 4 2,655 $629,000 $595,000 10/30/19
Average: 3.9 4.4 3,454 $1,319,290 $1,248,715
Viewing 1 - 43 of 43
Viewing 1 - 43 of 43
board logo

We do not attempt to independently verify the currency, completeness, accuracy or authenticity of the data contained herein. It may be subject to transcription and transmission errors. Accordingly, the data is provided on an “as is,” “as available” basis only and may not reflect all real estate activity in the market. © 2020 Multiple Listing Service of Hilton Head Island, Inc. All rights reserved. Certain information contained herein is derived from information which is the licensed property of, and copyrighted by, Multiple Listing Service of Hilton Head Island, Inc.